»·PEaware :: FDX5150 KOAK-KMFR

FDX5150 :: KOAK-KMFR

FLIGHT INFORMATION

Flight Status: Arrived
Operator:
Federal Express
More flights by this operator :: More flights under this callsign
Pilot: Anonymous 17686 (17686)
Aircraft: BOEING 727-200
(B722)
More flights by this aircraft type
Origin: KOAK Metro Oakland Intl
United States
Destination: KMFR Rogue Valley Intl-Medford
United States
More flights between these airports :: More routes between these airports
Route: +SLNT1 RBL LMT
File this flight plan on PilotEdge
Remarks:
Altitude:
(Current/Filed)
29,000ft
Speed:
(Current/Filed)
450kts
Departed: 23-Aug-18 10:37 PM
Arrived: 23-Aug-18 11:38 PM
Distance/Time
Traveled:
281nm/1:01
Distance/Time
To Go:
Arrived

Flight Plot

Page will automatically refresh every two minutes.

Flight plan parsing failed; only flown route is shown


Map Options




Map Legend


Flown Route
Filed Route
Departure Airport
Arrival Airport
Navaid (VOR, NDB)
Fix

Horizontal Profiles

Position Reports

Time Latitude Longitude Heading Altitude Ground
Speed
23-Aug-18 21:44 37.717904 -122.219128 311 15ft 0kts
23-Aug-18 21:45 37.717904 -122.219128 311 15ft 0kts
23-Aug-18 21:46 37.717904 -122.219128 311 15ft 0kts
23-Aug-18 21:47 37.717904 -122.219128 311 15ft 0kts
23-Aug-18 21:48 37.717904 -122.219128 311 15ft 0kts
23-Aug-18 21:49 37.717904 -122.219128 311 15ft 0kts
23-Aug-18 21:50 37.717904 -122.219128 311 15ft 0kts
23-Aug-18 21:51 37.717904 -122.219128 311 15ft 0kts
23-Aug-18 21:52 37.717904 -122.219128 311 15ft 0kts
23-Aug-18 21:53 37.717904 -122.219128 311 15ft 0kts
23-Aug-18 21:54 37.717904 -122.219128 311 15ft 0kts
23-Aug-18 21:55 37.717904 -122.219128 311 15ft 0kts
23-Aug-18 21:56 37.717904 -122.219128 311 15ft 0kts
23-Aug-18 21:57 37.717904 -122.219128 311 15ft 0kts
23-Aug-18 21:58 37.717904 -122.219128 311 15ft 0kts
23-Aug-18 21:59 37.717592 -122.218686 311 15ft 2kts
23-Aug-18 22:00 37.717492 -122.218071 233 15ft 1kts
23-Aug-18 22:01 37.717551 -122.217988 227 15ft 0kts
23-Aug-18 22:02 37.717551 -122.217988 227 15ft 0kts
23-Aug-18 22:03 37.717551 -122.217988 227 15ft 0kts
23-Aug-18 22:04 37.717551 -122.217988 227 15ft 0kts
23-Aug-18 22:05 37.717551 -122.217988 227 15ft 0kts
23-Aug-18 22:06 37.717551 -122.217988 227 15ft 0kts
23-Aug-18 22:07 37.717551 -122.217988 227 15ft 0kts
23-Aug-18 22:08 37.717551 -122.217988 227 15ft 0kts
23-Aug-18 22:09 37.717551 -122.217988 227 15ft 0kts
23-Aug-18 22:10 37.717551 -122.217988 227 15ft 0kts
23-Aug-18 22:11 37.717551 -122.217988 227 15ft 0kts
23-Aug-18 22:12 37.717551 -122.217988 227 15ft 0kts
23-Aug-18 22:13 37.719414 -122.216910 219 15ft 0kts
23-Aug-18 22:14 37.719414 -122.216910 219 15ft 0kts
23-Aug-18 22:15 37.719414 -122.216910 219 15ft 0kts
23-Aug-18 22:16 37.719414 -122.216910 219 15ft 0kts
23-Aug-18 22:17 37.719414 -122.216910 219 15ft 0kts
23-Aug-18 22:18 37.719414 -122.216910 219 15ft 0kts
23-Aug-18 22:19 37.719414 -122.216910 219 15ft 0kts
23-Aug-18 22:20 37.719556 -122.216765 219 15ft 2kts
23-Aug-18 22:21 37.719905 -122.216157 248 15ft 2kts
23-Aug-18 22:22 37.719723 -122.215514 308 15ft 2kts
23-Aug-18 22:23 37.719383 -122.214984 286 15ft 1kts
23-Aug-18 22:24 37.719448 -122.214750 227 15ft 0kts
23-Aug-18 22:25 37.719449 -122.214749 227 15ft 0kts
23-Aug-18 22:26 37.719448 -122.214750 227 15ft 0kts
23-Aug-18 22:27 37.719447 -122.214751 227 15ft 0kts
23-Aug-18 22:28 37.718977 -122.215368 219 15ft 9kts
23-Aug-18 22:29 37.716681 -122.217113 231 15ft 12kts
23-Aug-18 22:30 37.714353 -122.220355 231 15ft 13kts
23-Aug-18 22:31 37.712663 -122.222677 214 15ft 0kts
23-Aug-18 22:32 37.710013 -122.223237 130 15ft 14kts
23-Aug-18 22:33 37.707019 -122.218745 129 15ft 18kts
23-Aug-18 22:34 37.703940 -122.214200 142 15ft 12kts
23-Aug-18 22:35 37.701942 -122.214862 305 15ft 8kts
23-Aug-18 22:36 37.702035 -122.215017 310 15ft 0kts
23-Aug-18 22:37 37.702077 -122.215078 310 15ft 4kts
23-Aug-18 22:38 37.718188 -122.244636 285 964ft 162kts
23-Aug-18 22:39 37.733463 -122.318372 283 4166ft 250kts
23-Aug-18 22:40 37.785115 -122.374257 352 8417ft 277kts
23-Aug-18 22:41 37.867802 -122.378587 357 10838ft 343kts
23-Aug-18 22:42 37.968940 -122.381416 357 13874ft 378kts
23-Aug-18 22:43 38.076373 -122.383425 357 16924ft 398kts
23-Aug-18 22:44 38.189151 -122.385836 357 19565ft 415kts
23-Aug-18 22:45 38.306226 -122.388391 356 21854ft 430kts
23-Aug-18 22:46 38.427325 -122.391079 356 23854ft 444kts
23-Aug-18 22:47 38.552171 -122.393868 356 25614ft 456kts
23-Aug-18 22:48 38.679964 -122.396744 356 27180ft 467kts
23-Aug-18 22:49 38.811744 -122.399758 356 28069ft 490kts
23-Aug-18 22:50 38.950483 -122.402914 356 28066ft 506kts
23-Aug-18 22:51 39.091051 -122.377991 7 28063ft 517kts
23-Aug-18 22:52 39.229567 -122.354122 3 28040ft 490kts
23-Aug-18 22:53 39.360724 -122.335952 3 28004ft 463kts
23-Aug-18 22:54 39.486990 -122.318929 3 28014ft 464kts
23-Aug-18 22:55 39.619367 -122.301102 3 28009ft 494kts
23-Aug-18 22:56 39.759153 -122.282093 3 28004ft 520kts
23-Aug-18 22:57 39.898980 -122.262920 3 27968ft 454kts
23-Aug-18 22:58 40.010791 -122.247592 2 27965ft 365kts
23-Aug-18 22:59 40.104052 -122.236168 359 27966ft 313kts
23-Aug-18 23:00 40.186821 -122.216355 1 27628ft 306kts
23-Aug-18 23:01 40.271343 -122.206047 3 28270ft 314kts
23-Aug-18 23:02 40.365134 -122.174861 7 27784ft 385kts
23-Aug-18 23:03 40.476766 -122.148558 7 28005ft 436kts
23-Aug-18 23:04 40.602748 -122.119067 7 28001ft 485kts
23-Aug-18 23:05 40.691096 -122.098338 7 28000ft 512kts
23-Aug-18 23:06 40.833446 -122.064851 7 27993ft 525kts
23-Aug-18 23:07 40.977611 -122.030828 7 27993ft 530kts
23-Aug-18 23:08 41.119548 -121.997078 5 27985ft 526kts
23-Aug-18 23:09 41.261949 -121.963581 5 28056ft 518kts
23-Aug-18 23:10 41.402596 -121.930007 5 28081ft 512kts
23-Aug-18 23:11 41.540973 -121.891555 7 27994ft 499kts
23-Aug-18 23:12 41.677696 -121.852620 7 25329ft 504kts
23-Aug-18 23:13 41.813045 -121.815270 7 23351ft 493kts
23-Aug-18 23:14 41.945768 -121.779500 7 21375ft 482kts
23-Aug-18 23:15 42.075463 -121.745468 7 19410ft 472kts
23-Aug-18 23:16 42.196846 -121.767914 318 17394ft 436kts
23-Aug-18 23:17 42.247388 -121.903874 284 15359ft 377kts
23-Aug-18 23:18 42.274396 -122.019881 284 13224ft 281kts
23-Aug-18 23:19 42.295729 -122.111280 284 11133ft 238kts
23-Aug-18 23:20 42.315075 -122.194337 285 9486ft 226kts
23-Aug-18 23:21 42.333905 -122.275303 286 8574ft 257kts
23-Aug-18 23:22 42.355671 -122.369187 288 7401ft 255kts
23-Aug-18 23:23 42.375867 -122.456311 286 6451ft 238kts
23-Aug-18 23:24 42.391294 -122.522920 286 6459ft 208kts
23-Aug-18 23:25 42.432646 -122.589714 345 7737ft 249kts
23-Aug-18 23:26 42.516591 -122.584675 2 6500ft 442kts
23-Aug-18 23:27 42.617408 -122.608919 314 6450ft 293kts
23-Aug-18 23:28 42.669193 -122.690770 309 6465ft 222kts
23-Aug-18 23:29 42.700903 -122.745389 301 6478ft 219kts
23-Aug-18 23:30 42.722158 -122.820185 280 6477ft 208kts
23-Aug-18 23:31 42.726378 -122.898848 266 6494ft 216kts
23-Aug-18 23:32 42.701382 -122.972389 201 6219ft 244kts
23-Aug-18 23:33 42.641304 -122.948073 155 5960ft 215kts
23-Aug-18 23:34 42.582889 -122.932849 170 4546ft 226kts
23-Aug-18 23:35 42.521707 -122.921014 170 3483ft 210kts
23-Aug-18 23:36 42.473152 -122.908538 166 3342ft 160kts
23-Aug-18 23:37 42.430065 -122.899012 166 2564ft 150kts
23-Aug-18 23:38 42.393047 -122.882896 154 1535ft 145kts
23-Aug-18 23:39 42.371760 -122.871607 159 1324ft 21kts
23-Aug-18 23:40 42.369454 -122.871489 255 1325ft 0kts
23-Aug-18 23:41 42.370450 -122.872753 293 1323ft 16kts
23-Aug-18 23:42 42.370337 -122.874091 248 1323ft 0kts
23-Aug-18 23:43 42.370337 -122.874090 248 1323ft 0kts
23-Aug-18 23:44 42.370337 -122.874090 248 1323ft 0kts
23-Aug-18 23:45 42.409115 -122.892139 159 1948ft 137kts
23-Aug-18 23:46 42.375360 -122.873420 158 1317ft 75kts
23-Aug-18 23:47 42.415867 -122.894626 165 2222ft 136kts
23-Aug-18 23:48 42.378571 -122.875125 157 1314ft 110kts
23-Aug-18 23:49 42.393423 -122.883119 154 1546ft 144kts
23-Aug-18 23:50 42.371817 -122.871635 159 1324ft 20kts
23-Aug-18 23:51 42.369455 -122.871487 254 1325ft 0kts
23-Aug-18 23:52 42.391182 -122.881834 156 1493ft 146kts
23-Aug-18 23:53 42.371472 -122.871461 159 1324ft 25kts

Navigation Log

Ident Type
Flight plan parsing failed, navigation log unavailable